sensor_id;sensor_type;location;lat;lon;timestamp;temperature;humidity
14031;DHT22;7090;49.436;8.490;2024-02-26T00:02:14;10.00;1.00
14031;DHT22;7090;49.436;8.490;2024-02-26T00:04:40;10.10;1.00
14031;DHT22;7090;49.436;8.490;2024-02-26T00:07:06;10.10;1.00
14031;DHT22;7090;49.436;8.490;2024-02-26T00:09:32;10.10;1.00
14031;DHT22;7090;49.436;8.490;2024-02-26T00:12:01;10.20;1.00
14031;DHT22;7090;49.436;8.490;2024-02-26T00:14:27;10.20;1.00
14031;DHT22;7090;49.436;8.490;2024-02-26T00:16:52;10.20;1.00
14031;DHT22;7090;49.436;8.490;2024-02-26T00:19:18;10.10;1.00
14031;DHT22;7090;49.436;8.490;2024-02-26T00:21:43;10.10;1.00
14031;DHT22;7090;49.436;8.490;2024-02-26T00:24:09;10.10;1.00
14031;DHT22;7090;49.436;8.490;2024-02-26T00:26:34;10.10;1.00
14031;DHT22;7090;49.436;8.490;2024-02-26T00:29:00;10.10;1.00
14031;DHT22;7090;49.436;8.490;2024-02-26T00:31:26;10.00;1.00
14031;DHT22;7090;49.436;8.490;2024-02-26T00:33:51;10.00;1.00
14031;DHT22;7090;49.436;8.490;2024-02-26T00:36:17;10.10;1.00
14031;DHT22;7090;49.436;8.490;2024-02-26T00:38:44;10.10;1.00
14031;DHT22;7090;49.436;8.490;2024-02-26T00:41:11;10.00;1.00
14031;DHT22;7090;49.436;8.490;2024-02-26T00:43:37;10.00;1.00
14031;DHT22;7090;49.436;8.490;2024-02-26T00:46:05;10.00;1.00
14031;DHT22;7090;49.436;8.490;2024-02-26T00:48:30;10.00;1.00
14031;DHT22;7090;49.436;8.490;2024-02-26T00:50:56;10.00;1.00
14031;DHT22;7090;49.436;8.490;2024-02-26T00:53:21;10.00;1.00
14031;DHT22;7090;49.436;8.490;2024-02-26T00:55:47;10.00;1.00
14031;DHT22;7090;49.436;8.490;2024-02-26T00:58:13;9.90;1.00
14031;DHT22;7090;49.436;8.490;2024-02-26T01:00:38;10.00;1.00
14031;DHT22;7090;49.436;8.490;2024-02-26T01:03:04;10.00;1.00
14031;DHT22;7090;49.436;8.490;2024-02-26T01:05:30;10.00;1.00
14031;DHT22;7090;49.436;8.490;2024-02-26T01:07:55;10.00;1.00
14031;DHT22;7090;49.436;8.490;2024-02-26T01:10:21;9.90;1.00
14031;DHT22;7090;49.436;8.490;2024-02-26T01:12:46;9.90;1.00
14031;DHT22;7090;49.436;8.490;2024-02-26T01:15:13;9.90;1.00
14031;DHT22;7090;49.436;8.490;2024-02-26T01:17:38;9.90;1.00
14031;DHT22;7090;49.436;8.490;2024-02-26T01:20:05;9.90;1.00
14031;DHT22;7090;49.436;8.490;2024-02-26T01:22:30;9.80;1.00
14031;DHT22;7090;49.436;8.490;2024-02-26T01:24:56;9.80;1.00
14031;DHT22;7090;49.436;8.490;2024-02-26T01:27:22;9.80;1.00
14031;DHT22;7090;49.436;8.490;2024-02-26T01:29:52;9.80;1.00
14031;DHT22;7090;49.436;8.490;2024-02-26T01:32:17;9.70;1.00
14031;DHT22;7090;49.436;8.490;2024-02-26T01:34:43;9.70;1.00
14031;DHT22;7090;49.436;8.490;2024-02-26T01:37:08;9.70;1.00
14031;DHT22;7090;49.436;8.490;2024-02-26T01:39:34;9.70;1.00
14031;DHT22;7090;49.436;8.490;2024-02-26T01:42:00;9.70;1.00
14031;DHT22;7090;49.436;8.490;2024-02-26T01:44:26;9.60;1.00
14031;DHT22;7090;49.436;8.490;2024-02-26T01:46:53;9.60;1.00
14031;DHT22;7090;49.436;8.490;2024-02-26T01:49:19;9.50;1.00
14031;DHT22;7090;49.436;8.490;2024-02-26T01:51:45;9.50;99.90
14031;DHT22;7090;49.436;8.490;2024-02-26T01:54:11;9.50;99.90
14031;DHT22;7090;49.436;8.490;2024-02-26T01:56:38;9.50;99.90
14031;DHT22;7090;49.436;8.490;2024-02-26T01:59:05;9.40;99.90
14031;DHT22;7090;49.436;8.490;2024-02-26T02:01:32;9.40;1.00
14031;DHT22;7090;49.436;8.490;2024-02-26T02:03:59;9.30;1.00
14031;DHT22;7090;49.436;8.490;2024-02-26T02:06:25;9.30;1.00
14031;DHT22;7090;49.436;8.490;2024-02-26T02:08:52;9.10;1.00
14031;DHT22;7090;49.436;8.490;2024-02-26T02:11:19;9.00;1.00
14031;DHT22;7090;49.436;8.490;2024-02-26T02:13:45;8.90;1.00
14031;DHT22;7090;49.436;8.490;2024-02-26T02:16:10;8.70;1.00
14031;DHT22;7090;49.436;8.490;2024-02-26T02:18:36;8.60;1.00
14031;DHT22;7090;49.436;8.490;2024-02-26T02:21:02;8.60;1.00
14031;DHT22;7090;49.436;8.490;2024-02-26T02:23:28;8.50;1.00
14031;DHT22;7090;49.436;8.490;2024-02-26T02:25:54;8.50;1.00
14031;DHT22;7090;49.436;8.490;2024-02-26T02:28:22;8.40;1.00
14031;DHT22;7090;49.436;8.490;2024-02-26T02:30:49;8.30;1.00
14031;DHT22;7090;49.436;8.490;2024-02-26T02:33:15;8.30;1.00
14031;DHT22;7090;49.436;8.490;2024-02-26T02:35:41;8.30;1.00
14031;DHT22;7090;49.436;8.490;2024-02-26T02:38:07;8.20;1.00
14031;DHT22;7090;49.436;8.490;2024-02-26T02:40:32;8.20;8.00
14031;DHT22;7090;49.436;8.490;2024-02-26T02:42:58;8.10;99.90
14031;DHT22;7090;49.436;8.490;2024-02-26T02:45:25;8.10;99.90
14031;DHT22;7090;49.436;8.490;2024-02-26T02:47:51;8.00;99.90
14031;DHT22;7090;49.436;8.490;2024-02-26T02:50:16;8.10;99.90
14031;DHT22;7090;49.436;8.490;2024-02-26T02:52:42;8.00;99.90
14031;DHT22;7090;49.436;8.490;2024-02-26T02:55:07;7.90;99.90
14031;DHT22;7090;49.436;8.490;2024-02-26T02:57:33;7.90;99.90
14031;DHT22;7090;49.436;8.490;2024-02-26T02:59:59;7.90;99.90
14031;DHT22;7090;49.436;8.490;2024-02-26T03:02:25;7.90;99.90
14031;DHT22;7090;49.436;8.490;2024-02-26T03:04:50;7.90;99.90
14031;DHT22;7090;49.436;8.490;2024-02-26T03:07:16;7.90;99.90
14031;DHT22;7090;49.436;8.490;2024-02-26T03:09:42;7.90;99.90
14031;DHT22;7090;49.436;8.490;2024-02-26T03:12:07;7.90;99.90
14031;DHT22;7090;49.436;8.490;2024-02-26T03:14:33;7.80;99.90
14031;DHT22;7090;49.436;8.490;2024-02-26T03:16:59;7.80;99.90
14031;DHT22;7090;49.436;8.490;2024-02-26T03:19:24;7.90;99.90
14031;DHT22;7090;49.436;8.490;2024-02-26T03:21:50;7.80;99.90
14031;DHT22;7090;49.436;8.490;2024-02-26T03:24:15;7.90;99.90
14031;DHT22;7090;49.436;8.490;2024-02-26T03:26:41;7.90;99.90
14031;DHT22;7090;49.436;8.490;2024-02-26T03:29:06;7.90;99.90
14031;DHT22;7090;49.436;8.490;2024-02-26T03:31:32;7.90;99.90
14031;DHT22;7090;49.436;8.490;2024-02-26T03:33:58;7.90;99.90
14031;DHT22;7090;49.436;8.490;2024-02-26T03:36:23;7.90;99.90
14031;DHT22;7090;49.436;8.490;2024-02-26T03:38:49;7.90;99.90
14031;DHT22;7090;49.436;8.490;2024-02-26T03:41:14;7.90;99.90
14031;DHT22;7090;49.436;8.490;2024-02-26T03:43:40;8.00;99.90
14031;DHT22;7090;49.436;8.490;2024-02-26T03:46:09;7.90;99.90
14031;DHT22;7090;49.436;8.490;2024-02-26T03:48:42;7.90;99.90
14031;DHT22;7090;49.436;8.490;2024-02-26T03:51:09;7.90;99.90
14031;DHT22;7090;49.436;8.490;2024-02-26T03:53:35;7.90;99.90
14031;DHT22;7090;49.436;8.490;2024-02-26T03:56:05;7.80;99.90
14031;DHT22;7090;49.436;8.490;2024-02-26T03:58:31;7.80;99.90
14031;DHT22;7090;49.436;8.490;2024-02-26T04:00:56;7.70;99.90
14031;DHT22;7090;49.436;8.490;2024-02-26T04:03:22;7.70;99.90
14031;DHT22;7090;49.436;8.490;2024-02-26T04:05:47;7.80;99.90
14031;DHT22;7090;49.436;8.490;2024-02-26T04:08:13;7.70;99.90
14031;DHT22;7090;49.436;8.490;2024-02-26T04:10:39;7.70;99.90
14031;DHT22;7090;49.436;8.490;2024-02-26T04:13:05;7.70;99.90
14031;DHT22;7090;49.436;8.490;2024-02-26T04:15:31;7.80;99.90
14031;DHT22;7090;49.436;8.490;2024-02-26T04:17:57;7.70;99.90
14031;DHT22;7090;49.436;8.490;2024-02-26T04:20:23;7.70;99.90
14031;DHT22;7090;49.436;8.490;2024-02-26T04:22:48;7.70;99.90
14031;DHT22;7090;49.436;8.490;2024-02-26T04:25:14;7.70;99.90
14031;DHT22;7090;49.436;8.490;2024-02-26T04:27:40;7.60;99.90
14031;DHT22;7090;49.436;8.490;2024-02-26T04:30:06;7.70;99.90
14031;DHT22;7090;49.436;8.490;2024-02-26T04:32:32;7.60;99.90
14031;DHT22;7090;49.436;8.490;2024-02-26T04:35:00;7.60;99.90
14031;DHT22;7090;49.436;8.490;2024-02-26T04:37:25;7.50;99.90
14031;DHT22;7090;49.436;8.490;2024-02-26T04:39:59;7.50;99.90
14031;DHT22;7090;49.436;8.490;2024-02-26T04:42:25;7.50;99.90
14031;DHT22;7090;49.436;8.490;2024-02-26T04:44:51;7.50;99.90
14031;DHT22;7090;49.436;8.490;2024-02-26T04:47:16;7.50;99.90
14031;DHT22;7090;49.436;8.490;2024-02-26T04:49:42;7.50;99.90
14031;DHT22;7090;49.436;8.490;2024-02-26T04:52:07;7.50;99.90
14031;DHT22;7090;49.436;8.490;2024-02-26T04:54:33;7.50;99.90
14031;DHT22;7090;49.436;8.490;2024-02-26T04:56:59;7.50;99.90
14031;DHT22;7090;49.436;8.490;2024-02-26T04:59:24;7.50;99.90
14031;DHT22;7090;49.436;8.490;2024-02-26T05:01:50;7.50;99.90
14031;DHT22;7090;49.436;8.490;2024-02-26T05:04:18;7.60;99.90
14031;DHT22;7090;49.436;8.490;2024-02-26T05:06:43;7.60;99.90
14031;DHT22;7090;49.436;8.490;2024-02-26T05:09:09;7.60;99.90
14031;DHT22;7090;49.436;8.490;2024-02-26T05:11:34;7.70;99.90
14031;DHT22;7090;49.436;8.490;2024-02-26T05:14:00;7.70;99.90
14031;DHT22;7090;49.436;8.490;2024-02-26T05:16:26;7.70;99.90
14031;DHT22;7090;49.436;8.490;2024-02-26T05:18:52;7.70;99.90
14031;DHT22;7090;49.436;8.490;2024-02-26T05:21:18;7.80;99.90
14031;DHT22;7090;49.436;8.490;2024-02-26T05:23:44;7.80;99.90
14031;DHT22;7090;49.436;8.490;2024-02-26T05:26:10;7.80;99.90
14031;DHT22;7090;49.436;8.490;2024-02-26T05:28:36;7.80;99.90
14031;DHT22;7090;49.436;8.490;2024-02-26T05:31:04;7.90;99.90
14031;DHT22;7090;49.436;8.490;2024-02-26T05:33:30;7.90;99.90
14031;DHT22;7090;49.436;8.490;2024-02-26T05:35:56;7.90;99.90
14031;DHT22;7090;49.436;8.490;2024-02-26T05:38:21;7.90;99.90
14031;DHT22;7090;49.436;8.490;2024-02-26T05:40:47;7.90;99.90
14031;DHT22;7090;49.436;8.490;2024-02-26T05:43:12;8.00;99.90
14031;DHT22;7090;49.436;8.490;2024-02-26T05:45:40;8.00;99.90
14031;DHT22;7090;49.436;8.490;2024-02-26T05:48:06;8.00;99.90
14031;DHT22;7090;49.436;8.490;2024-02-26T05:50:32;8.00;99.90
14031;DHT22;7090;49.436;8.490;2024-02-26T05:52:57;8.00;99.90
14031;DHT22;7090;49.436;8.490;2024-02-26T05:55:23;8.00;99.90
14031;DHT22;7090;49.436;8.490;2024-02-26T05:57:49;8.00;99.90
14031;DHT22;7090;49.436;8.490;2024-02-26T06:00:15;8.00;99.90
14031;DHT22;7090;49.436;8.490;2024-02-26T06:02:40;8.00;99.90
14031;DHT22;7090;49.436;8.490;2024-02-26T06:05:06;8.10;99.90
14031;DHT22;7090;49.436;8.490;2024-02-26T06:07:34;8.10;99.90
14031;DHT22;7090;49.436;8.490;2024-02-26T06:10:00;8.00;99.90
14031;DHT22;7090;49.436;8.490;2024-02-26T06:12:26;8.00;99.90
14031;DHT22;7090;49.436;8.490;2024-02-26T06:14:54;8.00;99.90
14031;DHT22;7090;49.436;8.490;2024-02-26T06:17:19;7.90;99.90
14031;DHT22;7090;49.436;8.490;2024-02-26T06:19:45;7.90;99.90
14031;DHT22;7090;49.436;8.490;2024-02-26T06:22:10;7.90;99.90
14031;DHT22;7090;49.436;8.490;2024-02-26T06:24:36;7.90;99.90
14031;DHT22;7090;49.436;8.490;2024-02-26T06:27:03;7.80;99.90
14031;DHT22;7090;49.436;8.490;2024-02-26T06:29:28;7.80;99.90
14031;DHT22;7090;49.436;8.490;2024-02-26T06:31:54;7.80;99.90
14031;DHT22;7090;49.436;8.490;2024-02-26T06:34:20;7.80;99.90
14031;DHT22;7090;49.436;8.490;2024-02-26T06:36:46;7.70;99.90
14031;DHT22;7090;49.436;8.490;2024-02-26T06:39:12;7.70;99.90
14031;DHT22;7090;49.436;8.490;2024-02-26T06:41:38;7.70;99.90
14031;DHT22;7090;49.436;8.490;2024-02-26T06:44:04;7.70;99.90
14031;DHT22;7090;49.436;8.490;2024-02-26T06:46:30;7.60;99.90
14031;DHT22;7090;49.436;8.490;2024-02-26T06:48:56;7.60;99.90
14031;DHT22;7090;49.436;8.490;2024-02-26T06:51:22;7.60;99.90
14031;DHT22;7090;49.436;8.490;2024-02-26T06:53:48;7.60;99.90
14031;DHT22;7090;49.436;8.490;2024-02-26T06:56:14;7.60;99.90
14031;DHT22;7090;49.436;8.490;2024-02-26T06:58:40;7.60;99.90
14031;DHT22;7090;49.436;8.490;2024-02-26T07:01:05;7.50;99.90
14031;DHT22;7090;49.436;8.490;2024-02-26T07:03:33;7.60;99.90
14031;DHT22;7090;49.436;8.490;2024-02-26T07:05:59;7.60;99.90
14031;DHT22;7090;49.436;8.490;2024-02-26T07:08:24;7.60;99.90
14031;DHT22;7090;49.436;8.490;2024-02-26T07:10:50;7.60;99.90
14031;DHT22;7090;49.436;8.490;2024-02-26T07:13:16;7.70;99.90
14031;DHT22;7090;49.436;8.490;2024-02-26T07:15:41;7.70;99.90
14031;DHT22;7090;49.436;8.490;2024-02-26T07:18:07;7.70;99.90
14031;DHT22;7090;49.436;8.490;2024-02-26T07:20:32;7.70;99.90
14031;DHT22;7090;49.436;8.490;2024-02-26T07:22:58;7.70;99.90
14031;DHT22;7090;49.436;8.490;2024-02-26T07:25:24;7.70;99.90
14031;DHT22;7090;49.436;8.490;2024-02-26T07:27:52;7.70;99.90
14031;DHT22;7090;49.436;8.490;2024-02-26T07:30:18;7.70;99.90
14031;DHT22;7090;49.436;8.490;2024-02-26T07:32:44;7.80;99.90
14031;DHT22;7090;49.436;8.490;2024-02-26T07:35:10;7.80;99.90
14031;DHT22;7090;49.436;8.490;2024-02-26T07:37:36;7.80;99.90
14031;DHT22;7090;49.436;8.490;2024-02-26T07:40:01;7.80;99.90
14031;DHT22;7090;49.436;8.490;2024-02-26T07:42:27;7.80;99.90
14031;DHT22;7090;49.436;8.490;2024-02-26T07:44:52;7.80;99.90
14031;DHT22;7090;49.436;8.490;2024-02-26T07:47:19;7.80;99.90
14031;DHT22;7090;49.436;8.490;2024-02-26T07:49:44;7.80;99.90
14031;DHT22;7090;49.436;8.490;2024-02-26T07:52:10;7.80;99.90
14031;DHT22;7090;49.436;8.490;2024-02-26T07:54:36;7.90;99.90
14031;DHT22;7090;49.436;8.490;2024-02-26T07:57:01;7.90;99.90
14031;DHT22;7090;49.436;8.490;2024-02-26T07:59:31;7.90;99.90
14031;DHT22;7090;49.436;8.490;2024-02-26T08:01:56;7.90;99.90
14031;DHT22;7090;49.436;8.490;2024-02-26T08:04:22;8.00;99.90
14031;DHT22;7090;49.436;8.490;2024-02-26T08:06:48;8.00;99.90
14031;DHT22;7090;49.436;8.490;2024-02-26T08:09:13;8.10;99.90
14031;DHT22;7090;49.436;8.490;2024-02-26T08:11:39;8.10;99.90
14031;DHT22;7090;49.436;8.490;2024-02-26T08:14:05;8.20;99.90
14031;DHT22;7090;49.436;8.490;2024-02-26T08:16:31;8.20;99.90
14031;DHT22;7090;49.436;8.490;2024-02-26T08:18:57;8.30;99.90
14031;DHT22;7090;49.436;8.490;2024-02-26T08:21:23;8.20;99.90
14031;DHT22;7090;49.436;8.490;2024-02-26T08:23:48;8.40;99.90
14031;DHT22;7090;49.436;8.490;2024-02-26T08:26:14;8.50;99.90
14031;DHT22;7090;49.436;8.490;2024-02-26T08:28:40;8.50;99.90
14031;DHT22;7090;49.436;8.490;2024-02-26T08:31:05;8.50;99.90
14031;DHT22;7090;49.436;8.490;2024-02-26T08:33:32;8.50;99.90
14031;DHT22;7090;49.436;8.490;2024-02-26T08:35:59;8.60;99.90
14031;DHT22;7090;49.436;8.490;2024-02-26T08:38:25;8.60;99.90
14031;DHT22;7090;49.436;8.490;2024-02-26T08:40:50;8.70;99.90
14031;DHT22;7090;49.436;8.490;2024-02-26T08:43:16;8.70;99.90
14031;DHT22;7090;49.436;8.490;2024-02-26T08:45:41;8.70;99.90
14031;DHT22;7090;49.436;8.490;2024-02-26T08:48:07;8.90;99.90
14031;DHT22;7090;49.436;8.490;2024-02-26T08:50:33;8.90;99.90
14031;DHT22;7090;49.436;8.490;2024-02-26T08:52:58;9.00;99.90
14031;DHT22;7090;49.436;8.490;2024-02-26T08:55:26;9.00;99.90
14031;DHT22;7090;49.436;8.490;2024-02-26T08:57:52;9.30;99.90
14031;DHT22;7090;49.436;8.490;2024-02-26T09:00:17;9.20;99.90
14031;DHT22;7090;49.436;8.490;2024-02-26T09:02:46;9.20;99.90
14031;DHT22;7090;49.436;8.490;2024-02-26T09:05:12;9.20;99.90
14031;DHT22;7090;49.436;8.490;2024-02-26T09:07:37;9.30;99.90
14031;DHT22;7090;49.436;8.490;2024-02-26T09:10:04;9.20;99.90
14031;DHT22;7090;49.436;8.490;2024-02-26T09:12:30;9.40;99.90
14031;DHT22;7090;49.436;8.490;2024-02-26T09:14:56;9.50;99.90
14031;DHT22;7090;49.436;8.490;2024-02-26T09:17:22;9.60;99.90
14031;DHT22;7090;49.436;8.490;2024-02-26T09:19:48;9.60;99.90
14031;DHT22;7090;49.436;8.490;2024-02-26T09:22:14;9.60;99.90
14031;DHT22;7090;49.436;8.490;2024-02-26T09:24:39;9.80;99.90
14031;DHT22;7090;49.436;8.490;2024-02-26T09:27:05;9.70;99.90
14031;DHT22;7090;49.436;8.490;2024-02-26T09:29:31;9.70;99.90
14031;DHT22;7090;49.436;8.490;2024-02-26T09:31:56;9.70;99.90
14031;DHT22;7090;49.436;8.490;2024-02-26T09:34:22;9.70;99.90
14031;DHT22;7090;49.436;8.490;2024-02-26T09:36:47;9.70;99.90
14031;DHT22;7090;49.436;8.490;2024-02-26T09:39:13;9.80;99.90
14031;DHT22;7090;49.436;8.490;2024-02-26T09:41:40;9.90;99.90
14031;DHT22;7090;49.436;8.490;2024-02-26T09:44:06;10.00;99.90
14031;DHT22;7090;49.436;8.490;2024-02-26T09:46:33;10.10;99.90
14031;DHT22;7090;49.436;8.490;2024-02-26T09:48:59;10.20;99.90
14031;DHT22;7090;49.436;8.490;2024-02-26T09:51:25;10.20;58.30
14031;DHT22;7090;49.436;8.490;2024-02-26T09:53:52;10.30;45.40
14031;DHT22;7090;49.436;8.490;2024-02-26T09:56:18;10.40;1.00
14031;DHT22;7090;49.436;8.490;2024-02-26T09:58:43;10.40;1.00
14031;DHT22;7090;49.436;8.490;2024-02-26T10:01:16;10.30;1.00
14031;DHT22;7090;49.436;8.490;2024-02-26T10:03:42;10.20;1.00
14031;DHT22;7090;49.436;8.490;2024-02-26T10:06:10;10.20;1.00
14031;DHT22;7090;49.436;8.490;2024-02-26T10:08:36;10.30;1.00
14031;DHT22;7090;49.436;8.490;2024-02-26T10:11:09;10.40;1.00
14031;DHT22;7090;49.436;8.490;2024-02-26T10:13:35;10.70;1.00
14031;DHT22;7090;49.436;8.490;2024-02-26T10:16:04;10.90;1.00
14031;DHT22;7090;49.436;8.490;2024-02-26T10:18:50;10.90;1.00
14031;DHT22;7090;49.436;8.490;2024-02-26T10:21:17;10.90;1.00
14031;DHT22;7090;49.436;8.490;2024-02-26T10:23:45;11.00;1.00
14031;DHT22;7090;49.436;8.490;2024-02-26T10:26:13;11.10;1.00
14031;DHT22;7090;49.436;8.490;2024-02-26T10:28:39;11.10;1.00
14031;DHT22;7090;49.436;8.490;2024-02-26T10:31:06;11.20;1.00
14031;DHT22;7090;49.436;8.490;2024-02-26T10:33:36;11.50;1.00
14031;DHT22;7090;49.436;8.490;2024-02-26T10:36:03;11.50;1.00
14031;DHT22;7090;49.436;8.490;2024-02-26T10:38:29;11.80;1.00
14031;DHT22;7090;49.436;8.490;2024-02-26T10:40:55;11.90;1.00
14031;DHT22;7090;49.436;8.490;2024-02-26T10:43:21;11.70;1.00
14031;DHT22;7090;49.436;8.490;2024-02-26T10:45:46;11.60;1.00
14031;DHT22;7090;49.436;8.490;2024-02-26T10:48:14;11.70;1.00
14031;DHT22;7090;49.436;8.490;2024-02-26T10:50:40;11.90;1.00
14031;DHT22;7090;49.436;8.490;2024-02-26T10:53:21;11.90;1.00
14031;DHT22;7090;49.436;8.490;2024-02-26T10:55:57;12.40;1.00
14031;DHT22;7090;49.436;8.490;2024-02-26T10:58:24;12.60;99.90
14031;DHT22;7090;49.436;8.490;2024-02-26T11:00:51;12.50;99.90
14031;DHT22;7090;49.436;8.490;2024-02-26T11:03:18;12.70;99.90
14031;DHT22;7090;49.436;8.490;2024-02-26T11:05:48;13.30;99.90
14031;DHT22;7090;49.436;8.490;2024-02-26T11:08:14;13.20;99.90
14031;DHT22;7090;49.436;8.490;2024-02-26T11:10:41;12.90;99.90
14031;DHT22;7090;49.436;8.490;2024-02-26T11:13:09;12.80;99.90
14031;DHT22;7090;49.436;8.490;2024-02-26T11:15:36;12.70;99.90
14031;DHT22;7090;49.436;8.490;2024-02-26T11:18:03;12.60;99.90
14031;DHT22;7090;49.436;8.490;2024-02-26T11:20:29;12.70;99.90
14031;DHT22;7090;49.436;8.490;2024-02-26T11:22:56;12.40;99.90
14031;DHT22;7090;49.436;8.490;2024-02-26T11:25:22;12.30;99.90
14031;DHT22;7090;49.436;8.490;2024-02-26T11:27:52;12.40;99.90
14031;DHT22;7090;49.436;8.490;2024-02-26T11:30:19;12.60;99.90
14031;DHT22;7090;49.436;8.490;2024-02-26T11:32:47;12.40;99.90
14031;DHT22;7090;49.436;8.490;2024-02-26T11:35:13;12.60;99.90
14031;DHT22;7090;49.436;8.490;2024-02-26T11:37:41;12.40;99.90
14031;DHT22;7090;49.436;8.490;2024-02-26T11:40:14;12.60;99.90
14031;DHT22;7090;49.436;8.490;2024-02-26T11:42:47;12.60;99.90
14031;DHT22;7090;49.436;8.490;2024-02-26T11:48:15;12.80;99.90
14031;DHT22;7090;49.436;8.490;2024-02-26T11:50:41;12.80;99.90
14031;DHT22;7090;49.436;8.490;2024-02-26T11:53:32;12.80;99.90
14031;DHT22;7090;49.436;8.490;2024-02-26T11:59:09;13.20;99.90
14031;DHT22;7090;49.436;8.490;2024-02-26T12:01:46;13.50;99.90
14031;DHT22;7090;49.436;8.490;2024-02-26T12:04:29;13.80;99.90
14031;DHT22;7090;49.436;8.490;2024-02-26T12:06:56;14.00;99.90
14031;DHT22;7090;49.436;8.490;2024-02-26T12:09:39;14.40;99.90
14031;DHT22;7090;49.436;8.490;2024-02-26T12:12:08;14.40;1.00
14031;DHT22;7090;49.436;8.490;2024-02-26T12:14:38;14.30;99.90
14031;DHT22;7090;49.436;8.490;2024-02-26T12:17:04;14.30;1.00
14031;DHT22;7090;49.436;8.490;2024-02-26T12:19:34;14.30;1.00
14031;DHT22;7090;49.436;8.490;2024-02-26T12:22:00;14.60;1.00
14031;DHT22;7090;49.436;8.490;2024-02-26T12:24:26;14.20;1.00
14031;DHT22;7090;49.436;8.490;2024-02-26T12:26:52;14.60;99.90
14031;DHT22;7090;49.436;8.490;2024-02-26T12:29:17;15.00;1.00
14031;DHT22;7090;49.436;8.490;2024-02-26T12:31:43;15.10;1.00
14031;DHT22;7090;49.436;8.490;2024-02-26T12:34:09;14.50;1.00
14031;DHT22;7090;49.436;8.490;2024-02-26T12:36:35;14.70;1.00
14031;DHT22;7090;49.436;8.490;2024-02-26T12:39:05;14.80;1.00
14031;DHT22;7090;49.436;8.490;2024-02-26T12:41:34;14.80;1.00
14031;DHT22;7090;49.436;8.490;2024-02-26T12:44:00;15.20;1.00
14031;DHT22;7090;49.436;8.490;2024-02-26T12:46:26;15.00;1.00
14031;DHT22;7090;49.436;8.490;2024-02-26T12:48:52;14.90;1.00
14031;DHT22;7090;49.436;8.490;2024-02-26T12:51:22;14.80;1.00
14031;DHT22;7090;49.436;8.490;2024-02-26T12:53:48;14.30;1.00
14031;DHT22;7090;49.436;8.490;2024-02-26T12:56:15;14.40;1.00
14031;DHT22;7090;49.436;8.490;2024-02-26T12:58:41;14.70;1.00
14031;DHT22;7090;49.436;8.490;2024-02-26T13:01:14;14.40;1.00
14031;DHT22;7090;49.436;8.490;2024-02-26T13:03:40;14.90;1.00
14031;DHT22;7090;49.436;8.490;2024-02-26T13:06:06;14.60;1.00
14031;DHT22;7090;49.436;8.490;2024-02-26T13:08:32;14.90;1.00
14031;DHT22;7090;49.436;8.490;2024-02-26T13:11:01;15.10;1.00
14031;DHT22;7090;49.436;8.490;2024-02-26T13:13:28;15.30;1.00
14031;DHT22;7090;49.436;8.490;2024-02-26T13:16:07;14.90;1.00
14031;DHT22;7090;49.436;8.490;2024-02-26T13:18:34;15.00;1.00
14031;DHT22;7090;49.436;8.490;2024-02-26T13:21:08;15.10;1.00
14031;DHT22;7090;49.436;8.490;2024-02-26T13:23:34;15.50;1.00
14031;DHT22;7090;49.436;8.490;2024-02-26T13:26:00;16.10;1.00
14031;DHT22;7090;49.436;8.490;2024-02-26T13:28:25;16.70;1.00
14031;DHT22;7090;49.436;8.490;2024-02-26T13:30:53;16.00;1.00
14031;DHT22;7090;49.436;8.490;2024-02-26T13:33:22;15.60;1.00
14031;DHT22;7090;49.436;8.490;2024-02-26T13:35:48;15.20;1.00
14031;DHT22;7090;49.436;8.490;2024-02-26T13:38:13;14.40;1.00
14031;DHT22;7090;49.436;8.490;2024-02-26T13:40:39;14.40;1.00
14031;DHT22;7090;49.436;8.490;2024-02-26T13:43:05;14.20;1.00
14031;DHT22;7090;49.436;8.490;2024-02-26T13:45:34;14.70;1.00
14031;DHT22;7090;49.436;8.490;2024-02-26T13:48:03;14.60;1.00
14031;DHT22;7090;49.436;8.490;2024-02-26T13:50:29;14.60;1.00
14031;DHT22;7090;49.436;8.490;2024-02-26T13:52:55;15.10;1.00
14031;DHT22;7090;49.436;8.490;2024-02-26T13:55:22;15.20;1.00
14031;DHT22;7090;49.436;8.490;2024-02-26T13:57:49;15.20;1.00
14031;DHT22;7090;49.436;8.490;2024-02-26T14:00:17;15.00;1.00
14031;DHT22;7090;49.436;8.490;2024-02-26T14:02:43;14.70;1.00
14031;DHT22;7090;49.436;8.490;2024-02-26T14:05:09;15.10;1.00
14031;DHT22;7090;49.436;8.490;2024-02-26T14:07:34;15.30;1.00
14031;DHT22;7090;49.436;8.490;2024-02-26T14:10:00;15.50;1.00
14031;DHT22;7090;49.436;8.490;2024-02-26T14:12:25;15.70;1.00
14031;DHT22;7090;49.436;8.490;2024-02-26T14:14:51;15.80;1.00
14031;DHT22;7090;49.436;8.490;2024-02-26T14:17:19;16.10;1.00
14031;DHT22;7090;49.436;8.490;2024-02-26T14:19:45;16.20;1.00
14031;DHT22;7090;49.436;8.490;2024-02-26T14:22:13;16.30;1.00
14031;DHT22;7090;49.436;8.490;2024-02-26T14:24:38;15.80;1.00
14031;DHT22;7090;49.436;8.490;2024-02-26T14:27:06;16.20;1.00
14031;DHT22;7090;49.436;8.490;2024-02-26T14:29:33;16.80;1.00
14031;DHT22;7090;49.436;8.490;2024-02-26T14:31:58;17.00;1.00
14031;DHT22;7090;49.436;8.490;2024-02-26T14:34:24;16.70;1.00
14031;DHT22;7090;49.436;8.490;2024-02-26T14:36:49;16.80;1.00
14031;DHT22;7090;49.436;8.490;2024-02-26T14:39:15;17.10;1.00
14031;DHT22;7090;49.436;8.490;2024-02-26T14:41:41;17.30;1.00
14031;DHT22;7090;49.436;8.490;2024-02-26T14:44:06;17.70;1.00
14031;DHT22;7090;49.436;8.490;2024-02-26T14:46:32;17.30;1.00
14031;DHT22;7090;49.436;8.490;2024-02-26T14:48:58;17.10;1.00
14031;DHT22;7090;49.436;8.490;2024-02-26T14:51:23;16.60;1.00
14031;DHT22;7090;49.436;8.490;2024-02-26T14:53:49;16.40;1.00
14031;DHT22;7090;49.436;8.490;2024-02-26T14:56:15;16.90;1.00
14031;DHT22;7090;49.436;8.490;2024-02-26T14:58:40;16.80;1.00
14031;DHT22;7090;49.436;8.490;2024-02-26T15:01:06;15.80;1.00
14031;DHT22;7090;49.436;8.490;2024-02-26T15:03:32;16.20;1.00
14031;DHT22;7090;49.436;8.490;2024-02-26T15:05:58;16.70;1.00
14031;DHT22;7090;49.436;8.490;2024-02-26T15:08:24;17.50;1.00
14031;DHT22;7090;49.436;8.490;2024-02-26T15:10:49;16.70;1.00
14031;DHT22;7090;49.436;8.490;2024-02-26T15:13:15;16.20;1.00
14031;DHT22;7090;49.436;8.490;2024-02-26T15:15:41;15.70;1.00
14031;DHT22;7090;49.436;8.490;2024-02-26T15:18:07;15.50;1.00
14031;DHT22;7090;49.436;8.490;2024-02-26T15:20:33;14.60;1.00
14031;DHT22;7090;49.436;8.490;2024-02-26T15:22:59;14.60;1.00
14031;DHT22;7090;49.436;8.490;2024-02-26T15:25:25;14.80;1.00
14031;DHT22;7090;49.436;8.490;2024-02-26T15:27:50;14.90;1.00
14031;DHT22;7090;49.436;8.490;2024-02-26T15:30:16;14.80;1.00
14031;DHT22;7090;49.436;8.490;2024-02-26T15:32:42;15.00;1.00
14031;DHT22;7090;49.436;8.490;2024-02-26T15:35:09;15.30;1.00
14031;DHT22;7090;49.436;8.490;2024-02-26T15:37:35;15.30;1.00
14031;DHT22;7090;49.436;8.490;2024-02-26T15:40:01;15.30;1.00
14031;DHT22;7090;49.436;8.490;2024-02-26T15:42:29;15.40;1.00
14031;DHT22;7090;49.436;8.490;2024-02-26T15:44:54;15.60;1.00
14031;DHT22;7090;49.436;8.490;2024-02-26T15:47:20;16.00;1.00
14031;DHT22;7090;49.436;8.490;2024-02-26T15:49:46;16.20;1.00
14031;DHT22;7090;49.436;8.490;2024-02-26T15:52:12;16.20;1.00
14031;DHT22;7090;49.436;8.490;2024-02-26T15:54:39;16.30;1.00
14031;DHT22;7090;49.436;8.490;2024-02-26T15:57:05;16.30;1.00
14031;DHT22;7090;49.436;8.490;2024-02-26T15:59:31;16.20;1.00
14031;DHT22;7090;49.436;8.490;2024-02-26T16:01:56;15.50;1.00
14031;DHT22;7090;49.436;8.490;2024-02-26T16:04:22;15.60;1.00